sensor_id;sensor_type;location;lat;lon;timestamp;P1;durP1;ratioP1;P2;durP2;ratioP2
6015;SDS011;3036;49.960;8.454;2022-10-31T00:00:43;6.23;;;3.57;;
6015;SDS011;3036;49.960;8.454;2022-10-31T00:03:10;8.23;;;3.70;;
6015;SDS011;3036;49.960;8.454;2022-10-31T00:05:40;7.77;;;3.90;;
6015;SDS011;3036;49.960;8.454;2022-10-31T00:08:07;4.37;;;3.40;;
6015;SDS011;3036;49.960;8.454;2022-10-31T00:10:40;4.77;;;3.23;;
6015;SDS011;3036;49.960;8.454;2022-10-31T00:13:07;10.10;;;3.80;;
6015;SDS011;3036;49.960;8.454;2022-10-31T00:15:35;8.23;;;4.13;;
6015;SDS011;3036;49.960;8.454;2022-10-31T00:18:04;6.03;;;4.37;;
6015;SDS011;3036;49.960;8.454;2022-10-31T00:20:31;6.70;;;4.60;;
6015;SDS011;3036;49.960;8.454;2022-10-31T00:22:58;5.23;;;3.93;;
6015;SDS011;3036;49.960;8.454;2022-10-31T00:25:26;3.80;;;3.50;;
6015;SDS011;3036;49.960;8.454;2022-10-31T00:27:54;4.23;;;3.67;;
6015;SDS011;3036;49.960;8.454;2022-10-31T00:30:21;4.63;;;4.10;;
6015;SDS011;3036;49.960;8.454;2022-10-31T00:32:48;7.77;;;4.00;;
6015;SDS011;3036;49.960;8.454;2022-10-31T00:35:17;6.00;;;4.03;;
6015;SDS011;3036;49.960;8.454;2022-10-31T00:37:44;3.80;;;3.47;;
6015;SDS011;3036;49.960;8.454;2022-10-31T00:40:11;6.40;;;3.93;;
6015;SDS011;3036;49.960;8.454;2022-10-31T00:42:38;5.67;;;3.57;;
6015;SDS011;3036;49.960;8.454;2022-10-31T00:45:06;7.27;;;3.83;;
6015;SDS011;3036;49.960;8.454;2022-10-31T00:47:34;4.27;;;3.87;;
6015;SDS011;3036;49.960;8.454;2022-10-31T00:50:01;5.43;;;3.93;;
6015;SDS011;3036;49.960;8.454;2022-10-31T00:52:29;6.20;;;3.87;;
6015;SDS011;3036;49.960;8.454;2022-10-31T00:54:56;7.70;;;3.80;;
6015;SDS011;3036;49.960;8.454;2022-10-31T00:57:23;7.73;;;4.00;;
6015;SDS011;3036;49.960;8.454;2022-10-31T00:59:50;4.53;;;4.07;;
6015;SDS011;3036;49.960;8.454;2022-10-31T01:02:17;5.20;;;3.97;;
6015;SDS011;3036;49.960;8.454;2022-10-31T01:04:44;4.30;;;3.77;;
6015;SDS011;3036;49.960;8.454;2022-10-31T01:07:12;4.20;;;3.70;;
6015;SDS011;3036;49.960;8.454;2022-10-31T01:09:40;6.73;;;3.87;;
6015;SDS011;3036;49.960;8.454;2022-10-31T01:12:07;7.53;;;3.40;;
6015;SDS011;3036;49.960;8.454;2022-10-31T01:14:34;5.00;;;4.10;;
6015;SDS011;3036;49.960;8.454;2022-10-31T01:17:02;4.63;;;3.57;;
6015;SDS011;3036;49.960;8.454;2022-10-31T01:19:29;5.20;;;3.87;;
6015;SDS011;3036;49.960;8.454;2022-10-31T01:21:56;4.90;;;3.60;;
6015;SDS011;3036;49.960;8.454;2022-10-31T01:24:23;5.00;;;2.90;;
6015;SDS011;3036;49.960;8.454;2022-10-31T01:26:51;4.93;;;3.83;;
6015;SDS011;3036;49.960;8.454;2022-10-31T01:29:18;5.97;;;3.50;;
6015;SDS011;3036;49.960;8.454;2022-10-31T01:31:45;6.07;;;3.90;;
6015;SDS011;3036;49.960;8.454;2022-10-31T01:34:13;6.93;;;4.03;;
6015;SDS011;3036;49.960;8.454;2022-10-31T01:36:41;8.43;;;3.63;;
6015;SDS011;3036;49.960;8.454;2022-10-31T01:39:10;5.37;;;3.80;;
6015;SDS011;3036;49.960;8.454;2022-10-31T01:41:38;3.40;;;3.17;;
6015;SDS011;3036;49.960;8.454;2022-10-31T01:46:50;3.60;;;3.27;;
6015;SDS011;3036;49.960;8.454;2022-10-31T01:49:18;6.13;;;4.00;;
6015;SDS011;3036;49.960;8.454;2022-10-31T01:51:50;5.17;;;3.97;;
6015;SDS011;3036;49.960;8.454;2022-10-31T01:54:19;7.27;;;3.97;;
6015;SDS011;3036;49.960;8.454;2022-10-31T01:56:48;4.37;;;3.90;;
6015;SDS011;3036;49.960;8.454;2022-10-31T01:59:17;6.87;;;4.40;;
6015;SDS011;3036;49.960;8.454;2022-10-31T02:01:45;8.60;;;4.10;;
6015;SDS011;3036;49.960;8.454;2022-10-31T02:04:14;11.07;;;3.67;;
6015;SDS011;3036;49.960;8.454;2022-10-31T02:06:43;7.27;;;3.63;;
6015;SDS011;3036;49.960;8.454;2022-10-31T02:09:12;3.63;;;3.30;;
6015;SDS011;3036;49.960;8.454;2022-10-31T02:11:40;4.40;;;3.93;;
6015;SDS011;3036;49.960;8.454;2022-10-31T02:14:07;7.97;;;3.90;;
6015;SDS011;3036;49.960;8.454;2022-10-31T02:16:34;6.10;;;3.77;;
6015;SDS011;3036;49.960;8.454;2022-10-31T02:19:02;6.20;;;3.83;;
6015;SDS011;3036;49.960;8.454;2022-10-31T02:21:32;4.37;;;3.70;;
6015;SDS011;3036;49.960;8.454;2022-10-31T02:26:53;13.73;;;4.47;;
6015;SDS011;3036;49.960;8.454;2022-10-31T02:29:28;9.30;;;4.20;;
6015;SDS011;3036;49.960;8.454;2022-10-31T02:31:59;12.30;;;3.97;;
6015;SDS011;3036;49.960;8.454;2022-10-31T02:34:29;7.60;;;4.40;;
6015;SDS011;3036;49.960;8.454;2022-10-31T02:36:59;7.13;;;4.00;;
6015;SDS011;3036;49.960;8.454;2022-10-31T02:39:29;4.27;;;3.87;;
6015;SDS011;3036;49.960;8.454;2022-10-31T02:42:02;4.90;;;3.50;;
6015;SDS011;3036;49.960;8.454;2022-10-31T02:44:33;12.93;;;4.07;;
6015;SDS011;3036;49.960;8.454;2022-10-31T02:47:04;6.13;;;3.73;;
6015;SDS011;3036;49.960;8.454;2022-10-31T02:49:32;5.83;;;4.07;;
6015;SDS011;3036;49.960;8.454;2022-10-31T02:52:00;7.53;;;4.23;;
6015;SDS011;3036;49.960;8.454;2022-10-31T02:54:27;5.50;;;4.53;;
6015;SDS011;3036;49.960;8.454;2022-10-31T02:56:57;6.03;;;4.50;;
6015;SDS011;3036;49.960;8.454;2022-10-31T02:59:25;12.73;;;5.23;;
6015;SDS011;3036;49.960;8.454;2022-10-31T03:04:47;9.10;;;3.90;;
6015;SDS011;3036;49.960;8.454;2022-10-31T03:07:21;6.73;;;3.93;;
6015;SDS011;3036;49.960;8.454;2022-10-31T03:09:52;6.50;;;3.60;;
6015;SDS011;3036;49.960;8.454;2022-10-31T03:12:22;5.30;;;3.10;;
6015;SDS011;3036;49.960;8.454;2022-10-31T03:14:51;3.77;;;3.37;;
6015;SDS011;3036;49.960;8.454;2022-10-31T03:17:21;3.23;;;3.03;;
6015;SDS011;3036;49.960;8.454;2022-10-31T03:19:51;3.17;;;2.87;;
6015;SDS011;3036;49.960;8.454;2022-10-31T03:22:20;8.50;;;3.23;;
6015;SDS011;3036;49.960;8.454;2022-10-31T03:24:48;2.80;;;2.60;;
6015;SDS011;3036;49.960;8.454;2022-10-31T03:27:16;3.07;;;2.77;;
6015;SDS011;3036;49.960;8.454;2022-10-31T03:29:45;3.27;;;2.83;;
6015;SDS011;3036;49.960;8.454;2022-10-31T03:32:15;5.63;;;3.67;;
6015;SDS011;3036;49.960;8.454;2022-10-31T03:34:44;3.10;;;2.83;;
6015;SDS011;3036;49.960;8.454;2022-10-31T03:37:13;3.30;;;3.00;;
6015;SDS011;3036;49.960;8.454;2022-10-31T03:39:42;2.87;;;2.67;;
6015;SDS011;3036;49.960;8.454;2022-10-31T03:42:11;6.23;;;3.50;;
6015;SDS011;3036;49.960;8.454;2022-10-31T03:44:40;5.07;;;3.77;;
6015;SDS011;3036;49.960;8.454;2022-10-31T03:47:09;4.30;;;3.90;;
6015;SDS011;3036;49.960;8.454;2022-10-31T03:49:36;8.07;;;3.70;;
6015;SDS011;3036;49.960;8.454;2022-10-31T03:52:06;3.60;;;2.70;;
6015;SDS011;3036;49.960;8.454;2022-10-31T03:54:38;2.57;;;2.47;;
6015;SDS011;3036;49.960;8.454;2022-10-31T03:57:08;2.93;;;2.73;;
6015;SDS011;3036;49.960;8.454;2022-10-31T03:59:40;2.87;;;2.63;;
6015;SDS011;3036;49.960;8.454;2022-10-31T04:02:10;4.00;;;3.10;;
6015;SDS011;3036;49.960;8.454;2022-10-31T04:04:38;3.13;;;2.80;;
6015;SDS011;3036;49.960;8.454;2022-10-31T04:07:11;3.00;;;2.80;;
6015;SDS011;3036;49.960;8.454;2022-10-31T04:09:41;2.77;;;2.57;;
6015;SDS011;3036;49.960;8.454;2022-10-31T04:12:09;6.43;;;2.80;;
6015;SDS011;3036;49.960;8.454;2022-10-31T04:14:40;3.20;;;3.00;;
6015;SDS011;3036;49.960;8.454;2022-10-31T04:17:09;3.27;;;3.00;;
6015;SDS011;3036;49.960;8.454;2022-10-31T04:19:36;4.63;;;2.87;;
6015;SDS011;3036;49.960;8.454;2022-10-31T04:22:03;6.50;;;3.27;;
6015;SDS011;3036;49.960;8.454;2022-10-31T04:24:30;3.40;;;3.10;;
6015;SDS011;3036;49.960;8.454;2022-10-31T04:26:59;3.60;;;3.30;;
6015;SDS011;3036;49.960;8.454;2022-10-31T04:29:26;5.27;;;3.13;;
6015;SDS011;3036;49.960;8.454;2022-10-31T04:31:53;5.50;;;4.07;;
6015;SDS011;3036;49.960;8.454;2022-10-31T04:34:20;4.20;;;3.50;;
6015;SDS011;3036;49.960;8.454;2022-10-31T04:36:47;7.67;;;4.10;;
6015;SDS011;3036;49.960;8.454;2022-10-31T04:39:14;9.50;;;3.87;;
6015;SDS011;3036;49.960;8.454;2022-10-31T04:41:41;7.30;;;3.57;;
6015;SDS011;3036;49.960;8.454;2022-10-31T04:44:09;4.00;;;3.57;;
6015;SDS011;3036;49.960;8.454;2022-10-31T04:46:36;7.50;;;3.60;;
6015;SDS011;3036;49.960;8.454;2022-10-31T04:49:03;6.37;;;3.70;;
6015;SDS011;3036;49.960;8.454;2022-10-31T04:51:30;6.87;;;3.50;;
6015;SDS011;3036;49.960;8.454;2022-10-31T04:53:57;7.57;;;3.10;;
6015;SDS011;3036;49.960;8.454;2022-10-31T04:56:24;4.77;;;3.57;;
6015;SDS011;3036;49.960;8.454;2022-10-31T04:58:51;5.23;;;3.03;;
6015;SDS011;3036;49.960;8.454;2022-10-31T05:01:20;6.10;;;3.43;;
6015;SDS011;3036;49.960;8.454;2022-10-31T05:03:47;8.73;;;3.33;;
6015;SDS011;3036;49.960;8.454;2022-10-31T05:06:14;7.33;;;3.63;;
6015;SDS011;3036;49.960;8.454;2022-10-31T05:08:41;5.30;;;3.10;;
6015;SDS011;3036;49.960;8.454;2022-10-31T05:11:08;3.03;;;2.83;;
6015;SDS011;3036;49.960;8.454;2022-10-31T05:13:45;3.83;;;3.37;;
6015;SDS011;3036;49.960;8.454;2022-10-31T05:16:12;4.03;;;3.53;;
6015;SDS011;3036;49.960;8.454;2022-10-31T05:18:40;5.67;;;3.60;;
6015;SDS011;3036;49.960;8.454;2022-10-31T05:21:07;6.00;;;3.27;;
6015;SDS011;3036;49.960;8.454;2022-10-31T05:23:34;4.93;;;3.77;;
6015;SDS011;3036;49.960;8.454;2022-10-31T05:26:01;5.30;;;3.57;;
6015;SDS011;3036;49.960;8.454;2022-10-31T05:28:28;5.37;;;3.33;;
6015;SDS011;3036;49.960;8.454;2022-10-31T05:30:55;5.60;;;3.23;;
6015;SDS011;3036;49.960;8.454;2022-10-31T05:33:22;3.30;;;3.03;;
6015;SDS011;3036;49.960;8.454;2022-10-31T05:35:51;8.63;;;3.53;;
6015;SDS011;3036;49.960;8.454;2022-10-31T05:38:18;3.67;;;3.13;;
6015;SDS011;3036;49.960;8.454;2022-10-31T05:40:45;10.53;;;3.93;;
6015;SDS011;3036;49.960;8.454;2022-10-31T05:43:12;6.63;;;3.70;;
6015;SDS011;3036;49.960;8.454;2022-10-31T05:45:39;4.13;;;3.80;;
6015;SDS011;3036;49.960;8.454;2022-10-31T05:48:06;4.07;;;3.53;;
6015;SDS011;3036;49.960;8.454;2022-10-31T05:53:25;6.63;;;3.53;;
6015;SDS011;3036;49.960;8.454;2022-10-31T05:55:52;4.00;;;3.70;;
6015;SDS011;3036;49.960;8.454;2022-10-31T05:58:19;6.57;;;3.37;;
6015;SDS011;3036;49.960;8.454;2022-10-31T06:00:46;4.13;;;3.43;;
6015;SDS011;3036;49.960;8.454;2022-10-31T06:03:13;5.97;;;3.83;;
6015;SDS011;3036;49.960;8.454;2022-10-31T06:05:41;3.37;;;3.07;;
6015;SDS011;3036;49.960;8.454;2022-10-31T06:08:11;7.47;;;3.17;;
6015;SDS011;3036;49.960;8.454;2022-10-31T06:10:39;4.17;;;3.57;;
6015;SDS011;3036;49.960;8.454;2022-10-31T06:13:06;6.27;;;3.67;;
6015;SDS011;3036;49.960;8.454;2022-10-31T06:15:33;3.90;;;3.50;;
6015;SDS011;3036;49.960;8.454;2022-10-31T06:18:01;7.77;;;5.97;;
6015;SDS011;3036;49.960;8.454;2022-10-31T06:20:29;6.17;;;4.27;;
6015;SDS011;3036;49.960;8.454;2022-10-31T06:22:56;4.00;;;3.53;;
6015;SDS011;3036;49.960;8.454;2022-10-31T06:25:23;7.47;;;4.13;;
6015;SDS011;3036;49.960;8.454;2022-10-31T06:27:53;12.20;;;3.67;;
6015;SDS011;3036;49.960;8.454;2022-10-31T06:30:20;7.90;;;3.90;;
6015;SDS011;3036;49.960;8.454;2022-10-31T06:32:47;5.03;;;3.53;;
6015;SDS011;3036;49.960;8.454;2022-10-31T06:35:15;10.10;;;3.47;;
6015;SDS011;3036;49.960;8.454;2022-10-31T06:37:42;9.60;;;3.80;;
6015;SDS011;3036;49.960;8.454;2022-10-31T06:40:10;4.93;;;3.77;;
6015;SDS011;3036;49.960;8.454;2022-10-31T06:42:37;9.73;;;4.63;;
6015;SDS011;3036;49.960;8.454;2022-10-31T06:45:06;10.63;;;4.40;;
6015;SDS011;3036;49.960;8.454;2022-10-31T06:47:33;5.57;;;3.77;;
6015;SDS011;3036;49.960;8.454;2022-10-31T06:50:00;5.03;;;4.00;;
6015;SDS011;3036;49.960;8.454;2022-10-31T06:52:27;5.70;;;4.50;;
6015;SDS011;3036;49.960;8.454;2022-10-31T06:54:54;3.87;;;3.57;;
6015;SDS011;3036;49.960;8.454;2022-10-31T06:57:21;10.87;;;5.03;;
6015;SDS011;3036;49.960;8.454;2022-10-31T06:59:48;8.67;;;6.50;;
6015;SDS011;3036;49.960;8.454;2022-10-31T07:02:16;4.30;;;3.90;;
6015;SDS011;3036;49.960;8.454;2022-10-31T07:04:43;6.20;;;3.77;;
6015;SDS011;3036;49.960;8.454;2022-10-31T07:07:10;10.73;;;5.90;;
6015;SDS011;3036;49.960;8.454;2022-10-31T07:09:37;9.17;;;5.77;;
6015;SDS011;3036;49.960;8.454;2022-10-31T07:12:05;6.33;;;5.10;;
6015;SDS011;3036;49.960;8.454;2022-10-31T07:14:32;9.27;;;6.30;;
6015;SDS011;3036;49.960;8.454;2022-10-31T07:16:59;29.03;;;11.37;;
6015;SDS011;3036;49.960;8.454;2022-10-31T07:19:27;9.83;;;6.10;;
6015;SDS011;3036;49.960;8.454;2022-10-31T07:21:54;7.17;;;4.67;;
6015;SDS011;3036;49.960;8.454;2022-10-31T07:24:21;6.93;;;4.40;;
6015;SDS011;3036;49.960;8.454;2022-10-31T07:26:48;8.33;;;5.27;;
6015;SDS011;3036;49.960;8.454;2022-10-31T07:29:15;16.90;;;6.80;;
6015;SDS011;3036;49.960;8.454;2022-10-31T07:31:42;8.47;;;5.40;;
6015;SDS011;3036;49.960;8.454;2022-10-31T07:34:10;7.93;;;4.73;;
6015;SDS011;3036;49.960;8.454;2022-10-31T07:36:38;8.40;;;5.80;;
6015;SDS011;3036;49.960;8.454;2022-10-31T07:39:05;10.27;;;4.80;;
6015;SDS011;3036;49.960;8.454;2022-10-31T07:41:32;6.67;;;4.67;;
6015;SDS011;3036;49.960;8.454;2022-10-31T07:43:59;5.73;;;4.47;;
6015;SDS011;3036;49.960;8.454;2022-10-31T07:46:26;5.83;;;4.23;;
6015;SDS011;3036;49.960;8.454;2022-10-31T07:48:53;8.83;;;4.93;;
6015;SDS011;3036;49.960;8.454;2022-10-31T07:51:20;5.77;;;4.50;;
6015;SDS011;3036;49.960;8.454;2022-10-31T07:53:50;7.17;;;4.30;;
6015;SDS011;3036;49.960;8.454;2022-10-31T07:56:17;7.90;;;4.70;;
6015;SDS011;3036;49.960;8.454;2022-10-31T07:58:44;7.47;;;5.70;;
6015;SDS011;3036;49.960;8.454;2022-10-31T08:01:11;7.73;;;5.37;;
6015;SDS011;3036;49.960;8.454;2022-10-31T08:03:38;7.20;;;4.70;;
6015;SDS011;3036;49.960;8.454;2022-10-31T08:06:05;7.50;;;5.23;;
6015;SDS011;3036;49.960;8.454;2022-10-31T08:08:32;6.20;;;4.27;;
6015;SDS011;3036;49.960;8.454;2022-10-31T08:11:01;8.27;;;4.03;;
6015;SDS011;3036;49.960;8.454;2022-10-31T08:13:28;4.33;;;3.93;;
6015;SDS011;3036;49.960;8.454;2022-10-31T08:15:56;6.00;;;4.17;;
6015;SDS011;3036;49.960;8.454;2022-10-31T08:18:28;4.63;;;4.13;;
6015;SDS011;3036;49.960;8.454;2022-10-31T08:20:55;8.20;;;4.13;;
6015;SDS011;3036;49.960;8.454;2022-10-31T08:23:22;8.20;;;3.97;;
6015;SDS011;3036;49.960;8.454;2022-10-31T08:25:49;5.60;;;4.20;;
6015;SDS011;3036;49.960;8.454;2022-10-31T08:28:18;4.73;;;3.67;;
6015;SDS011;3036;49.960;8.454;2022-10-31T08:30:45;5.07;;;3.77;;
6015;SDS011;3036;49.960;8.454;2022-10-31T08:33:13;6.00;;;4.00;;
6015;SDS011;3036;49.960;8.454;2022-10-31T08:35:40;7.03;;;3.47;;
6015;SDS011;3036;49.960;8.454;2022-10-31T08:38:08;4.53;;;4.00;;
6015;SDS011;3036;49.960;8.454;2022-10-31T08:40:35;4.93;;;3.73;;
6015;SDS011;3036;49.960;8.454;2022-10-31T08:43:03;5.17;;;3.73;;
6015;SDS011;3036;49.960;8.454;2022-10-31T08:45:32;4.77;;;4.03;;
6015;SDS011;3036;49.960;8.454;2022-10-31T08:47:59;5.37;;;4.23;;
6015;SDS011;3036;49.960;8.454;2022-10-31T08:50:27;3.50;;;3.20;;
6015;SDS011;3036;49.960;8.454;2022-10-31T08:52:58;4.80;;;4.00;;
6015;SDS011;3036;49.960;8.454;2022-10-31T08:55:26;6.87;;;3.90;;
6015;SDS011;3036;49.960;8.454;2022-10-31T08:57:54;7.53;;;3.47;;
6015;SDS011;3036;49.960;8.454;2022-10-31T09:00:21;4.17;;;3.40;;
6015;SDS011;3036;49.960;8.454;2022-10-31T09:02:55;5.10;;;4.03;;
6015;SDS011;3036;49.960;8.454;2022-10-31T09:05:22;4.37;;;3.30;;
6015;SDS011;3036;49.960;8.454;2022-10-31T09:07:49;6.20;;;3.37;;
6015;SDS011;3036;49.960;8.454;2022-10-31T09:10:16;6.80;;;3.65;;
6015;SDS011;3036;49.960;8.454;2022-10-31T09:12:43;3.80;;;2.95;;
6015;SDS011;3036;49.960;8.454;2022-10-31T09:15:10;3.47;;;3.03;;
6015;SDS011;3036;49.960;8.454;2022-10-31T09:17:38;2.90;;;2.63;;
6015;SDS011;3036;49.960;8.454;2022-10-31T09:20:06;3.87;;;3.27;;
6015;SDS011;3036;49.960;8.454;2022-10-31T09:22:34;5.25;;;3.13;;
6015;SDS011;3036;49.960;8.454;2022-10-31T09:25:01;7.47;;;3.17;;
6015;SDS011;3036;49.960;8.454;2022-10-31T09:27:28;3.00;;;2.57;;
6015;SDS011;3036;49.960;8.454;2022-10-31T09:29:55;3.90;;;2.90;;
6015;SDS011;3036;49.960;8.454;2022-10-31T09:32:22;3.95;;;3.28;;
6015;SDS011;3036;49.960;8.454;2022-10-31T09:34:49;5.33;;;2.87;;
6015;SDS011;3036;49.960;8.454;2022-10-31T09:37:17;3.70;;;3.40;;
6015;SDS011;3036;49.960;8.454;2022-10-31T09:39:44;4.20;;;3.28;;
6015;SDS011;3036;49.960;8.454;2022-10-31T09:44:58;3.17;;;2.97;;
6015;SDS011;3036;49.960;8.454;2022-10-31T09:47:31;4.87;;;3.30;;
6015;SDS011;3036;49.960;8.454;2022-10-31T09:50:09;3.07;;;2.77;;
6015;SDS011;3036;49.960;8.454;2022-10-31T09:52:40;3.63;;;3.33;;
6015;SDS011;3036;49.960;8.454;2022-10-31T09:55:13;3.47;;;3.25;;
6015;SDS011;3036;49.960;8.454;2022-10-31T09:57:41;3.83;;;3.53;;
6015;SDS011;3036;49.960;8.454;2022-10-31T10:00:10;5.85;;;4.07;;
6015;SDS011;3036;49.960;8.454;2022-10-31T10:02:42;4.60;;;3.60;;
6015;SDS011;3036;49.960;8.454;2022-10-31T10:05:10;6.03;;;3.90;;
6015;SDS011;3036;49.960;8.454;2022-10-31T10:07:44;3.97;;;3.63;;
6015;SDS011;3036;49.960;8.454;2022-10-31T10:10:14;6.85;;;3.65;;
6015;SDS011;3036;49.960;8.454;2022-10-31T10:12:47;8.07;;;3.95;;
6015;SDS011;3036;49.960;8.454;2022-10-31T10:18:04;8.43;;;4.30;;
6015;SDS011;3036;49.960;8.454;2022-10-31T10:20:35;8.35;;;3.58;;
6015;SDS011;3036;49.960;8.454;2022-10-31T10:25:58;4.47;;;3.67;;
6015;SDS011;3036;49.960;8.454;2022-10-31T10:28:28;5.95;;;4.50;;
6015;SDS011;3036;49.960;8.454;2022-10-31T10:30:59;10.35;;;4.78;;
6015;SDS011;3036;49.960;8.454;2022-10-31T10:33:27;4.63;;;4.10;;
6015;SDS011;3036;49.960;8.454;2022-10-31T10:35:55;8.38;;;4.80;;
6015;SDS011;3036;49.960;8.454;2022-10-31T10:38:26;7.28;;;4.63;;
6015;SDS011;3036;49.960;8.454;2022-10-31T10:40:54;4.90;;;4.40;;
6015;SDS011;3036;49.960;8.454;2022-10-31T10:43:24;7.78;;;4.70;;
6015;SDS011;3036;49.960;8.454;2022-10-31T10:45:57;6.70;;;5.03;;
6015;SDS011;3036;49.960;8.454;2022-10-31T10:48:44;3.75;;;3.35;;
6015;SDS011;3036;49.960;8.454;2022-10-31T10:51:15;6.60;;;5.05;;
6015;SDS011;3036;49.960;8.454;2022-10-31T10:53:46;9.35;;;4.78;;
6015;SDS011;3036;49.960;8.454;2022-10-31T10:56:30;7.90;;;4.78;;
6015;SDS011;3036;49.960;8.454;2022-10-31T10:59:03;9.95;;;5.45;;
6015;SDS011;3036;49.960;8.454;2022-10-31T11:01:30;9.10;;;5.45;;
6015;SDS011;3036;49.960;8.454;2022-10-31T11:03:58;6.22;;;5.25;;
6015;SDS011;3036;49.960;8.454;2022-10-31T11:06:25;7.70;;;4.53;;
6015;SDS011;3036;49.960;8.454;2022-10-31T11:08:52;4.50;;;4.10;;
6015;SDS011;3036;49.960;8.454;2022-10-31T11:11:23;6.93;;;4.85;;
6015;SDS011;3036;49.960;8.454;2022-10-31T11:13:52;5.88;;;4.53;;
6015;SDS011;3036;49.960;8.454;2022-10-31T11:16:28;6.43;;;4.28;;
6015;SDS011;3036;49.960;8.454;2022-10-31T11:19:05;6.40;;;3.80;;
6015;SDS011;3036;49.960;8.454;2022-10-31T11:21:33;5.70;;;4.13;;
6015;SDS011;3036;49.960;8.454;2022-10-31T11:24:07;9.95;;;3.90;;
6015;SDS011;3036;49.960;8.454;2022-10-31T11:26:39;3.58;;;3.25;;
6015;SDS011;3036;49.960;8.454;2022-10-31T11:29:10;12.57;;;3.63;;
6015;SDS011;3036;49.960;8.454;2022-10-31T11:31:41;3.55;;;3.25;;
6015;SDS011;3036;49.960;8.454;2022-10-31T11:34:13;4.40;;;3.20;;
6015;SDS011;3036;49.960;8.454;2022-10-31T11:36:42;7.35;;;3.30;;
6015;SDS011;3036;49.960;8.454;2022-10-31T11:39:13;8.85;;;3.53;;
6015;SDS011;3036;49.960;8.454;2022-10-31T11:41:42;4.28;;;3.38;;
6015;SDS011;3036;49.960;8.454;2022-10-31T11:44:11;9.35;;;3.65;;
6015;SDS011;3036;49.960;8.454;2022-10-31T11:46:41;5.78;;;3.00;;
6015;SDS011;3036;49.960;8.454;2022-10-31T11:49:13;4.38;;;3.35;;
6015;SDS011;3036;49.960;8.454;2022-10-31T11:51:41;6.28;;;3.42;;
6015;SDS011;3036;49.960;8.454;2022-10-31T11:54:15;8.38;;;3.22;;
6015;SDS011;3036;49.960;8.454;2022-10-31T11:56:45;4.88;;;3.42;;
6015;SDS011;3036;49.960;8.454;2022-10-31T11:59:17;3.13;;;2.78;;
6015;SDS011;3036;49.960;8.454;2022-10-31T12:01:47;3.70;;;3.30;;
6015;SDS011;3036;49.960;8.454;2022-10-31T12:04:15;4.55;;;3.28;;
6015;SDS011;3036;49.960;8.454;2022-10-31T12:06:43;3.08;;;2.88;;
6015;SDS011;3036;49.960;8.454;2022-10-31T12:09:19;3.60;;;3.30;;
6015;SDS011;3036;49.960;8.454;2022-10-31T12:11:50;3.70;;;2.83;;
6015;SDS011;3036;49.960;8.454;2022-10-31T12:14:23;3.47;;;3.15;;
6015;SDS011;3036;49.960;8.454;2022-10-31T12:16:56;6.10;;;3.45;;
6015;SDS011;3036;49.960;8.454;2022-10-31T12:19:28;4.68;;;3.33;;
6015;SDS011;3036;49.960;8.454;2022-10-31T12:24:49;9.65;;;3.17;;
6015;SDS011;3036;49.960;8.454;2022-10-31T12:27:20;5.93;;;3.75;;
6015;SDS011;3036;49.960;8.454;2022-10-31T12:29:55;4.97;;;3.17;;
6015;SDS011;3036;49.960;8.454;2022-10-31T12:32:31;3.92;;;3.10;;
6015;SDS011;3036;49.960;8.454;2022-10-31T12:35:05;4.10;;;3.13;;
6015;SDS011;3036;49.960;8.454;2022-10-31T12:37:40;4.68;;;2.90;;
6015;SDS011;3036;49.960;8.454;2022-10-31T12:40:23;3.03;;;2.40;;
6015;SDS011;3036;49.960;8.454;2022-10-31T12:42:57;4.97;;;2.88;;
6015;SDS011;3036;49.960;8.454;2022-10-31T12:45:33;3.35;;;2.53;;
6015;SDS011;3036;49.960;8.454;2022-10-31T12:48:10;3.38;;;2.65;;
6015;SDS011;3036;49.960;8.454;2022-10-31T12:50:47;3.47;;;2.50;;
6015;SDS011;3036;49.960;8.454;2022-10-31T12:53:21;5.95;;;2.63;;
6015;SDS011;3036;49.960;8.454;2022-10-31T12:55:54;2.60;;;2.40;;
6015;SDS011;3036;49.960;8.454;2022-10-31T12:58:24;3.75;;;2.42;;
6015;SDS011;3036;49.960;8.454;2022-10-31T13:00:56;2.10;;;2.00;;
6015;SDS011;3036;49.960;8.454;2022-10-31T13:03:28;2.83;;;2.38;;
6015;SDS011;3036;49.960;8.454;2022-10-31T13:05:56;3.17;;;2.65;;
6015;SDS011;3036;49.960;8.454;2022-10-31T13:08:26;5.65;;;2.50;;
6015;SDS011;3036;49.960;8.454;2022-10-31T13:10:57;3.78;;;2.28;;
6015;SDS011;3036;49.960;8.454;2022-10-31T13:13:26;3.13;;;2.45;;
6015;SDS011;3036;49.960;8.454;2022-10-31T13:15:55;2.72;;;2.53;;
6015;SDS011;3036;49.960;8.454;2022-10-31T13:18:25;3.10;;;2.85;;
6015;SDS011;3036;49.960;8.454;2022-10-31T13:20:55;3.05;;;2.53;;
6015;SDS011;3036;49.960;8.454;2022-10-31T13:23:23;3.53;;;2.53;;
6015;SDS011;3036;49.960;8.454;2022-10-31T13:25:53;4.00;;;2.80;;
6015;SDS011;3036;49.960;8.454;2022-10-31T13:28:23;2.88;;;2.60;;
6015;SDS011;3036;49.960;8.454;2022-10-31T13:30:52;2.45;;;2.25;;
6015;SDS011;3036;49.960;8.454;2022-10-31T13:33:21;4.95;;;2.60;;
6015;SDS011;3036;49.960;8.454;2022-10-31T13:35:52;3.45;;;2.75;;
6015;SDS011;3036;49.960;8.454;2022-10-31T13:38:22;3.05;;;2.58;;
6015;SDS011;3036;49.960;8.454;2022-10-31T13:40:52;3.55;;;2.65;;
6015;SDS011;3036;49.960;8.454;2022-10-31T13:43:26;6.00;;;2.75;;
6015;SDS011;3036;49.960;8.454;2022-10-31T13:45:55;4.93;;;2.50;;
6015;SDS011;3036;49.960;8.454;2022-10-31T13:48:33;2.60;;;2.30;;
6015;SDS011;3036;49.960;8.454;2022-10-31T13:51:01;2.55;;;2.35;;
6015;SDS011;3036;49.960;8.454;2022-10-31T13:56:20;2.15;;;2.05;;
6015;SDS011;3036;49.960;8.454;2022-10-31T13:59:01;6.47;;;2.72;;
6015;SDS011;3036;49.960;8.454;2022-10-31T14:01:29;4.68;;;2.50;;
6015;SDS011;3036;49.960;8.454;2022-10-31T14:03:58;5.13;;;2.90;;
6015;SDS011;3036;49.960;8.454;2022-10-31T14:06:40;4.63;;;2.50;;
6015;SDS011;3036;49.960;8.454;2022-10-31T14:11:57;3.10;;;2.58;;
6015;SDS011;3036;49.960;8.454;2022-10-31T14:14:29;4.55;;;2.45;;
6015;SDS011;3036;49.960;8.454;2022-10-31T14:16:57;3.88;;;2.88;;
6015;SDS011;3036;49.960;8.454;2022-10-31T14:19:25;5.18;;;3.03;;
6015;SDS011;3036;49.960;8.454;2022-10-31T14:21:53;2.70;;;2.50;;
6015;SDS011;3036;49.960;8.454;2022-10-31T14:24:33;6.95;;;2.70;;
6015;SDS011;3036;49.960;8.454;2022-10-31T14:27:03;4.85;;;2.55;;
6015;SDS011;3036;49.960;8.454;2022-10-31T14:29:31;4.70;;;3.03;;
6015;SDS011;3036;49.960;8.454;2022-10-31T14:32:01;3.33;;;3.05;;
6015;SDS011;3036;49.960;8.454;2022-10-31T14:34:33;5.82;;;2.97;;
6015;SDS011;3036;49.960;8.454;2022-10-31T14:37:15;2.70;;;2.60;;
6015;SDS011;3036;49.960;8.454;2022-10-31T14:39:45;5.07;;;2.90;;
6015;SDS011;3036;49.960;8.454;2022-10-31T14:42:23;4.65;;;3.05;;
6015;SDS011;3036;49.960;8.454;2022-10-31T14:44:57;2.88;;;2.47;;
6015;SDS011;3036;49.960;8.454;2022-10-31T14:47:31;3.85;;;2.75;;
6015;SDS011;3036;49.960;8.454;2022-10-31T14:52:51;3.65;;;3.03;;
6015;SDS011;3036;49.960;8.454;2022-10-31T14:55:19;2.88;;;2.67;;
6015;SDS011;3036;49.960;8.454;2022-10-31T14:57:49;3.20;;;2.63;;
6015;SDS011;3036;49.960;8.454;2022-10-31T15:00:18;3.15;;;2.22;;
6015;SDS011;3036;49.960;8.454;2022-10-31T15:02:48;3.28;;;2.60;;
6015;SDS011;3036;49.960;8.454;2022-10-31T15:05:16;3.17;;;2.20;;
6015;SDS011;3036;49.960;8.454;2022-10-31T15:07:48;1.85;;;1.75;;
6015;SDS011;3036;49.960;8.454;2022-10-31T15:10:20;2.25;;;2.00;;
6015;SDS011;3036;49.960;8.454;2022-10-31T15:12:48;5.18;;;2.35;;
6015;SDS011;3036;49.960;8.454;2022-10-31T15:15:18;4.50;;;2.30;;
6015;SDS011;3036;49.960;8.454;2022-10-31T15:17:51;4.32;;;2.22;;
6015;SDS011;3036;49.960;8.454;2022-10-31T15:20:20;3.45;;;2.45;;
6015;SDS011;3036;49.960;8.454;2022-10-31T15:22:48;6.20;;;2.00;;
6015;SDS011;3036;49.960;8.454;2022-10-31T15:25:16;5.97;;;2.28;;
6015;SDS011;3036;49.960;8.454;2022-10-31T15:27:44;3.40;;;2.28;;
6015;SDS011;3036;49.960;8.454;2022-10-31T15:30:18;7.72;;;2.08;;
6015;SDS011;3036;49.960;8.454;2022-10-31T15:32:45;4.00;;;2.50;;
6015;SDS011;3036;49.960;8.454;2022-10-31T15:35:19;2.47;;;1.80;;
6015;SDS011;3036;49.960;8.454;2022-10-31T15:37:46;2.35;;;2.13;;
6015;SDS011;3036;49.960;8.454;2022-10-31T15:40:14;5.03;;;2.67;;
6015;SDS011;3036;49.960;8.454;2022-10-31T15:42:43;2.50;;;2.33;;
6015;SDS011;3036;49.960;8.454;2022-10-31T15:45:23;6.30;;;2.90;;
6015;SDS011;3036;49.960;8.454;2022-10-31T15:47:54;3.97;;;2.40;;
6015;SDS011;3036;49.960;8.454;2022-10-31T15:50:23;4.10;;;2.70;;
6015;SDS011;3036;49.960;8.454;2022-10-31T15:52:52;4.97;;;2.78;;
6015;SDS011;3036;49.960;8.454;2022-10-31T15:55:20;5.90;;;2.60;;
6015;SDS011;3036;49.960;8.454;2022-10-31T15:57:48;3.05;;;2.75;;